West Dennis, MA (02670)

8:43 AM EDT on September 04, 2015 (GMT -0400)
West Harwich | | Change Station
CLOSE
Current Station
Personal Weather Station
Location: Harwich, MA
Elevation: 26 ft
Nearby Weather Stations

Elev 26 ft 41.66 °N, 70.12 °W | Updated 26 seconds ago

Partly Cloudy
Partly Cloudy
72.9 °F
Feels Like 73 °F
N
0.9
Wind Variable Wind from East
Gusts 1.0 mph

Today
High -- | Low -- °F
--% Chance of Precip.
Yesterday
High -- | Low -- °F
Precip. -- in
6:09 AM 7:09 PM
Waning Gibbous, 60% visible
Pressure 30.05 in
Visibility 8.0 miles
Clouds Scattered Clouds 2800 ft
Heat Index 73 °F
Dew Point 67 °F
Humidity 82%
Rainfall 0.00 in
Snow Depth Not available.
UV 1 out of 12
Pollen 7.80 out of 12
Air Quality Not available.
Flu Activity Not available.
METAR KHYA 041156Z 04012G17KT 8SM SCT028 23/19 A3004 RMK AO2 SLP174 T02280189 10228 20206 51033
Pressure 30.05 in
Visibility 8.0 miles
Clouds Scattered Clouds 2800 ft
Heat Index 73 °F
Dew Point 67 °F
Humidity 82%
Rainfall 0.00 in
Snow Depth Not available.
UV 1 out of 12
Pollen 7.80 out of 12
Air Quality Not available.
Flu Activity Not available.
METAR KHYA 041156Z 04012G17KT 8SM SCT028 23/19 A3004 RMK AO2 SLP174 T02280189 10228 20206 51033

10-Day Weather Forecast

×

Almanac

Astronomy

Sep. 04, 2015 Rise Set
Actual Time
Civil Twilight
Nautical Twilight
Astronomical Twilight
Moon
Length of Visible Light
Length of Day
Tomorrow will be .
, % of the Moon is Illuminated

Today's Extremes

State Highs State Lows

Community

WunderPhotos

Upload Photos

1,852,174 photos uploaded!

WunderBlogs® & News

Nearby

Air Quality

  Air Quality AQ Index Pollutant
Not available.

Snow Depth

Station Depth Elevation

Earthquake Activity

City Distance Mag. Time & Date
Minimum magnitude displayed is 2.5.

Coastal Water Temperatures

Place Temperature

Stations

Nearby Weather Stations

Station Location Temp. Windchill Dew Point Humidity Wind Precip. Elev Updated Type